Time,TemperatureF,DewpointF,PressureIn,WindDirection,WindDirectionDegrees,WindSpeedMPH,WindSpeedGustMPH,Humidity,HourlyPrecipIn,Conditions,Clouds,dailyrainin,SoftwareType,DateUTC
2013-10-01 00:00:00,82.3,71.0,29.99,East,100,4.0,14.0,69,0.00,,,0.00,weatherlink.com 1.10,2013-10-01 04:00:00,
2013-10-01 00:30:00,82.1,72.0,29.99,ESE,108,5.0,9.0,71,0.00,,,0.00,weatherlink.com 1.10,2013-10-01 04:30:00,
2013-10-01 00:45:00,81.9,72.0,29.98,ESE,116,4.0,10.0,71,0.00,,,0.00,weatherlink.com 1.10,2013-10-01 04:45:00,
2013-10-01 01:00:00,81.7,71.0,29.98,East,89,7.0,10.0,71,0.00,,,0.00,weatherlink.com 1.10,2013-10-01 05:00:00,
2013-10-01 01:15:00,81.7,71.0,29.98,East,84,8.0,10.0,71,0.00,,,0.00,weatherlink.com 1.10,2013-10-01 05:15:00,
2013-10-01 01:30:00,81.7,71.0,29.98,East,83,10.0,13.0,70,0.00,,,0.00,weatherlink.com 1.10,2013-10-01 05:30:00,
2013-10-01 01:45:00,81.5,70.0,29.98,East,96,0.0,8.0,69,0.00,,,0.00,weatherlink.com 1.10,2013-10-01 05:45:00,
2013-10-01 02:00:00,81.3,70.0,29.98,East,95,0.0,10.0,69,0.00,,,0.00,weatherlink.com 1.10,2013-10-01 06:00:00,
2013-10-01 02:15:00,81.1,70.0,29.98,East,87,0.0,9.0,68,0.00,,,0.00,weatherlink.com 1.10,2013-10-01 06:15:00,
2013-10-01 02:31:00,81.1,69.0,29.97,East,90,0.0,4.0,67,0.00,,,0.00,weatherlink.com 1.10,2013-10-01 06:31:00,
2013-10-01 02:45:00,81.1,69.0,29.97,East,90,0.0,0.0,67,0.00,,,0.00,weatherlink.com 1.10,2013-10-01 06:45:00,
2013-10-01 03:00:00,81.1,70.0,29.96,East,92,0.0,6.0,69,0.00,,,0.00,weatherlink.com 1.10,2013-10-01 07:00:00,
2013-10-01 03:15:00,81.0,70.0,29.96,ESE,108,0.0,9.0,69,0.00,,,0.00,weatherlink.com 1.10,2013-10-01 07:15:00,
2013-10-01 03:30:00,80.8,70.0,29.96,ESE,109,0.0,4.0,70,0.00,,,0.00,weatherlink.com 1.10,2013-10-01 07:30:00,
2013-10-01 03:45:00,80.8,70.0,29.96,ESE,115,0.0,4.0,69,0.00,,,0.00,weatherlink.com 1.10,2013-10-01 07:45:00,
2013-10-01 04:00:00,80.8,70.0,29.95,ESE,107,0.0,8.0,70,0.00,,,0.00,weatherlink.com 1.10,2013-10-01 08:00:00,
2013-10-01 04:15:00,80.8,70.0,29.95,ESE,104,0.0,4.0,70,0.00,,,0.00,weatherlink.com 1.10,2013-10-01 08:15:00,
2013-10-01 04:30:00,80.6,70.0,29.95,ESE,102,0.0,9.0,70,0.00,,,0.00,weatherlink.com 1.10,2013-10-01 08:30:00,
2013-10-01 04:45:00,80.6,70.0,29.95,East,100,0.0,5.0,71,0.00,,,0.00,weatherlink.com 1.10,2013-10-01 08:45:00,
2013-10-01 05:00:00,80.8,71.0,29.95,East,100,0.0,4.0,72,0.00,,,0.00,weatherlink.com 1.10,2013-10-01 09:00:00,
2013-10-01 05:15:00,80.8,72.0,29.96,East,100,0.0,5.0,74,0.00,,,0.00,weatherlink.com 1.10,2013-10-01 09:15:00,
2013-10-01 05:30:00,80.8,73.0,29.96,East,100,0.0,1.0,76,0.00,,,0.00,weatherlink.com 1.10,2013-10-01 09:30:00,
2013-10-01 05:45:00,81.0,73.0,29.96,East,97,0.0,7.0,76,0.00,,,0.00,weatherlink.com 1.10,2013-10-01 09:45:00,
2013-10-01 06:00:00,81.1,73.0,29.96,East,99,5.0,7.0,75,0.00,,,0.00,weatherlink.com 1.10,2013-10-01 10:00:00,
2013-10-01 06:15:00,81.1,72.0,29.96,ESE,121,0.0,8.0,73,0.00,,,0.00,weatherlink.com 1.10,2013-10-01 10:15:00,
2013-10-01 06:30:00,81.1,72.0,29.97,ESE,118,3.0,4.0,74,0.00,,,0.00,weatherlink.com 1.10,2013-10-01 10:30:00,
2013-10-01 06:45:00,81.0,72.0,29.97,ESE,108,0.0,7.0,74,0.00,,,0.00,weatherlink.com 1.10,2013-10-01 10:45:00,
2013-10-01 07:00:00,80.8,72.0,29.98,ESE,106,0.0,5.0,74,0.00,,,0.00,weatherlink.com 1.10,2013-10-01 11:00:00,
2013-10-01 07:18:00,81.0,72.0,29.98,ESE,106,0.0,8.0,74,0.00,,,0.00,weatherlink.com 1.10,2013-10-01 11:18:00,
2013-10-01 07:30:00,81.0,72.0,29.98,ESE,105,0.0,4.0,75,0.00,,,0.00,weatherlink.com 1.10,2013-10-01 11:30:00,
2013-10-01 07:45:00,81.1,73.0,29.98,East,100,2.0,4.0,75,0.00,,,0.00,weatherlink.com 1.10,2013-10-01 11:45:00,
2013-10-01 08:00:00,81.7,73.0,29.98,East,98,5.0,7.0,74,0.00,,,0.00,weatherlink.com 1.10,2013-10-01 12:00:00,
2013-10-01 08:16:00,82.5,72.0,29.99,East,89,6.0,10.0,71,0.00,,,0.00,weatherlink.com 1.10,2013-10-01 12:16:00,
2013-10-01 08:31:00,83.1,72.0,29.99,ENE,76,9.0,11.0,70,0.00,,,0.00,weatherlink.com 1.10,2013-10-01 12:31:00,
2013-10-01 08:46:00,83.5,72.0,29.99,ENE,78,0.0,10.0,68,0.00,,,0.00,weatherlink.com 1.10,2013-10-01 12:46:00,
2013-10-01 09:01:00,83.7,73.0,30.00,East,94,1.0,9.0,69,0.00,,,0.00,weatherlink.com 1.10,2013-10-01 13:01:00,
2013-10-01 09:16:00,83.9,72.0,30.01,East,95,9.0,11.0,68,0.00,,,0.00,weatherlink.com 1.10,2013-10-01 13:16:00,
2013-10-01 09:31:00,83.9,73.0,30.01,ENE,71,2.0,14.0,69,0.00,,,0.00,weatherlink.com 1.10,2013-10-01 13:31:00,
2013-10-01 09:46:00,84.0,73.0,30.01,ESE,112,0.0,9.0,69,0.00,,,0.00,weatherlink.com 1.10,2013-10-01 13:46:00,
2013-10-01 10:16:00,83.7,72.0,30.02,East,83,1.0,18.0,68,0.00,,,0.00,weatherlink.com 1.10,2013-10-01 14:16:00,
2013-10-01 10:31:00,84.2,72.0,30.02,NNE,32,3.0,7.0,67,0.00,,,0.00,weatherlink.com 1.10,2013-10-01 14:31:00,
2013-10-01 10:46:00,84.0,72.0,30.02,North,2,8.0,10.0,67,0.00,,,0.00,weatherlink.com 1.10,2013-10-01 14:46:00,
2013-10-01 11:01:00,84.0,71.0,30.02,East,89,9.0,14.0,66,0.00,,,0.00,weatherlink.com 1.10,2013-10-01 15:01:00,
2013-10-01 11:16:00,84.6,72.0,30.02,NNE,14,6.0,14.0,65,0.00,,,0.00,weatherlink.com 1.10,2013-10-01 15:16:00,
2013-10-01 11:31:00,84.4,72.0,30.02,East,88,0.0,17.0,66,0.00,,,0.00,weatherlink.com 1.10,2013-10-01 15:31:00,
2013-10-01 11:46:00,85.2,72.0,30.02,East,87,0.0,21.0,65,0.00,,,0.00,weatherlink.com 1.10,2013-10-01 15:46:00,
2013-10-01 12:01:00,84.6,72.0,30.02,ESE,104,1.0,18.0,65,0.00,,,0.00,weatherlink.com 1.10,2013-10-01 16:01:00,
2013-10-01 12:16:00,84.2,72.0,30.02,ESE,111,1.0,21.0,67,0.00,,,0.00,weatherlink.com 1.10,2013-10-01 16:16:00,
2013-10-01 12:31:00,85.0,71.0,30.02,East,101,2.0,16.0,63,0.00,,,0.00,weatherlink.com 1.10,2013-10-01 16:31:00,
2013-10-01 12:46:00,85.2,71.0,30.01,East,81,2.0,11.0,63,0.00,,,0.00,weatherlink.com 1.10,2013-10-01 16:46:00,
2013-10-01 13:01:00,84.6,73.0,30.01,East,100,1.0,19.0,68,0.00,,,0.00,weatherlink.com 1.10,2013-10-01 17:01:00,
2013-10-01 13:16:00,84.0,73.0,30.01,North,360,1.0,18.0,69,0.00,,,0.00,weatherlink.com 1.10,2013-10-01 17:16:00,
2013-10-01 13:31:00,84.0,72.0,30.00,ENE,75,13.0,17.0,68,0.00,,,0.00,weatherlink.com 1.10,2013-10-01 17:31:00,
2013-10-01 13:46:00,84.8,72.0,30.00,NNE,19,1.0,13.0,66,0.00,,,0.00,weatherlink.com 1.10,2013-10-01 17:46:00,
2013-10-01 14:01:00,84.6,73.0,29.99,ENE,77,2.0,19.0,68,0.00,,,0.00,weatherlink.com 1.10,2013-10-01 18:01:00,
2013-10-01 14:16:00,84.0,73.0,29.99,ESE,102,2.0,17.0,69,0.00,,,0.00,weatherlink.com 1.10,2013-10-01 18:16:00,
2013-10-01 14:31:00,84.0,72.0,29.99,East,87,16.0,21.0,68,0.00,,,0.00,weatherlink.com 1.10,2013-10-01 18:31:00,
2013-10-01 14:46:00,84.0,71.0,29.98,NNE,16,4.0,17.0,66,0.00,,,0.00,weatherlink.com 1.10,2013-10-01 18:46:00,
2013-10-01 15:01:00,84.2,72.0,29.98,East,90,8.0,19.0,66,0.00,,,0.00,weatherlink.com 1.10,2013-10-01 19:01:00,
2013-10-01 15:16:00,83.9,72.0,29.98,NE,40,0.0,16.0,68,0.00,,,0.00,weatherlink.com 1.10,2013-10-01 19:16:00,
2013-10-01 15:31:00,83.7,72.0,29.98,East,92,12.0,21.0,68,0.00,,,0.00,weatherlink.com 1.10,2013-10-01 19:31:00,
2013-10-01 15:46:00,83.7,71.0,29.98,ENE,69,0.0,18.0,66,0.00,,,0.00,weatherlink.com 1.10,2013-10-01 19:46:00,
2013-10-01 16:01:00,84.0,71.0,29.97,East,81,13.0,22.0,65,0.00,,,0.00,weatherlink.com 1.10,2013-10-01 20:01:00,
2013-10-01 16:16:00,84.0,72.0,29.96,East,96,13.0,19.0,67,0.00,,,0.00,weatherlink.com 1.10,2013-10-01 20:16:00,
2013-10-01 16:31:00,83.7,72.0,29.96,ESE,110,0.0,17.0,67,0.00,,,0.00,weatherlink.com 1.10,2013-10-01 20:31:00,
2013-10-01 16:48:00,83.7,72.0,29.96,East,87,11.0,18.0,67,0.00,,,0.00,weatherlink.com 1.10,2013-10-01 20:48:00,
2013-10-01 17:01:00,83.5,71.0,29.96,East,94,8.0,16.0,67,0.00,,,0.00,weatherlink.com 1.10,2013-10-01 21:01:00,
2013-10-01 17:16:00,83.1,72.0,29.96,NE,50,0.0,23.0,69,0.00,,,0.00,weatherlink.com 1.10,2013-10-01 21:16:00,
2013-10-01 17:31:00,83.3,72.0,29.96,NNW,344,0.0,17.0,69,0.00,,,0.00,weatherlink.com 1.10,2013-10-01 21:31:00,
2013-10-01 17:46:00,82.9,71.0,29.97,ENE,63,0.0,21.0,68,0.00,,,0.00,weatherlink.com 1.10,2013-10-01 21:46:00,
2013-10-01 18:01:00,82.9,71.0,29.98,ENE,74,1.0,12.0,68,0.00,,,0.00,weatherlink.com 1.10,2013-10-01 22:01:00,
2013-10-01 18:16:00,82.5,71.0,29.98,ENE,70,10.0,18.0,68,0.00,,,0.00,weatherlink.com 1.10,2013-10-01 22:16:00,
2013-10-01 18:31:00,82.5,71.0,29.98,East,81,0.0,7.0,68,0.00,,,0.00,weatherlink.com 1.10,2013-10-01 22:31:00,
2013-10-01 18:46:00,82.3,72.0,29.99,East,92,1.0,19.0,70,0.00,,,0.00,weatherlink.com 1.10,2013-10-01 22:46:00,
2013-10-01 19:01:00,82.3,72.0,29.99,East,79,0.0,19.0,70,0.00,,,0.00,weatherlink.com 1.10,2013-10-01 23:01:00,
2013-10-01 19:16:00,82.1,71.0,30.00,ESE,112,7.0,13.0,70,0.00,,,0.00,weatherlink.com 1.10,2013-10-01 23:16:00,
2013-10-01 19:33:00,82.1,71.0,30.00,ESE,117,0.0,18.0,70,0.00,,,0.00,weatherlink.com 1.10,2013-10-01 23:33:00,
2013-10-01 19:46:00,81.9,71.0,30.00,NE,50,0.0,15.0,70,0.00,,,0.00,weatherlink.com 1.10,2013-10-01 23:46:00,
2013-10-01 20:01:00,81.9,71.0,29.99,East,88,0.0,17.0,70,0.00,,,0.00,weatherlink.com 1.10,2013-10-02 00:01:00,
2013-10-01 20:16:00,81.9,71.0,29.99,NNE,27,0.0,17.0,70,0.00,,,0.00,weatherlink.com 1.10,2013-10-02 00:16:00,
2013-10-01 20:31:00,81.7,71.0,29.99,ENE,74,0.0,10.0,70,0.00,,,0.00,weatherlink.com 1.10,2013-10-02 00:31:00,
2013-10-01 20:46:00,81.7,71.0,30.00,NE,41,5.0,18.0,71,0.00,,,0.00,weatherlink.com 1.10,2013-10-02 00:46:00,
2013-10-01 21:01:00,81.7,71.0,30.00,East,79,0.0,16.0,71,0.00,,,0.00,weatherlink.com 1.10,2013-10-02 01:01:00,
2013-10-01 21:16:00,81.7,72.0,30.01,ENE,65,0.0,15.0,72,0.00,,,0.00,weatherlink.com 1.10,2013-10-02 01:16:00,
2013-10-01 21:31:00,81.9,72.0,30.01,ESE,119,3.0,19.0,72,0.00,,,0.00,weatherlink.com 1.10,2013-10-02 01:31:00,
2013-10-01 21:46:00,81.9,72.0,30.02,East,94,0.0,16.0,72,0.00,,,0.00,weatherlink.com 1.10,2013-10-02 01:46:00,
2013-10-01 22:01:00,81.7,72.0,30.02,NE,52,5.0,14.0,72,0.00,,,0.00,weatherlink.com 1.10,2013-10-02 02:01:00,
2013-10-01 22:16:00,81.9,72.0,30.02,ESE,109,7.0,15.0,72,0.00,,,0.00,weatherlink.com 1.10,2013-10-02 02:16:00,
2013-10-01 22:31:00,81.9,72.0,30.02,ESE,111,1.0,17.0,72,0.00,,,0.00,weatherlink.com 1.10,2013-10-02 02:31:00,
2013-10-01 22:46:00,81.9,72.0,30.02,ENE,58,0.0,17.0,72,0.00,,,0.00,weatherlink.com 1.10,2013-10-02 02:46:00,
2013-10-01 23:01:00,81.9,72.0,30.02,East,101,2.0,18.0,71,0.00,,,0.00,weatherlink.com 1.10,2013-10-02 03:01:00,
2013-10-01 23:16:00,81.9,72.0,30.01,East,79,10.0,17.0,72,0.00,,,0.00,weatherlink.com 1.10,2013-10-02 03:16:00,
2013-10-01 23:31:00,81.9,72.0,30.01,East,101,0.0,14.0,71,0.00,,,0.00,weatherlink.com 1.10,2013-10-02 03:31:00,
2013-10-01 23:46:00,81.9,72.0,30.01,NE,39,2.0,13.0,71,0.00,,,0.00,weatherlink.com 1.10,2013-10-02 03:46:00,